sensor_id;sensor_type;location;lat;lon;timestamp;pressure;altitude;pressure_sealevel;temperature;humidity
68634;BME280;55625;47.072;22.192;2022-09-09T00:01:08;99382.06;;;20.50;75.20
68634;BME280;55625;47.072;22.192;2022-09-09T00:03:49;99401.75;;;20.46;74.25
68634;BME280;55625;47.072;22.192;2022-09-09T00:06:33;99422.16;;;20.48;74.10
68634;BME280;55625;47.072;22.192;2022-09-09T00:09:17;99432.13;;;20.53;74.28
68634;BME280;55625;47.072;22.192;2022-09-09T00:11:54;99429.41;;;20.71;72.75
68634;BME280;55625;47.072;22.192;2022-09-09T00:17:04;99442.75;;;20.86;72.91
68634;BME280;55625;47.072;22.192;2022-09-09T00:19:44;99442.19;;;20.93;72.77
68634;BME280;55625;47.072;22.192;2022-09-09T00:22:19;99454.78;;;20.90;73.20
68634;BME280;55625;47.072;22.192;2022-09-09T00:24:57;99468.97;;;20.88;73.46
68634;BME280;55625;47.072;22.192;2022-09-09T00:27:36;99482.56;;;20.93;73.79
68634;BME280;55625;47.072;22.192;2022-09-09T00:30:23;99514.59;;;20.89;75.84
68634;BME280;55625;47.072;22.192;2022-09-09T00:32:59;99551.06;;;20.75;78.03
68634;BME280;55625;47.072;22.192;2022-09-09T00:35:36;99600.38;;;20.66;79.67
68634;BME280;55625;47.072;22.192;2022-09-09T00:38:25;99600.94;;;20.54;84.16
68634;BME280;55625;47.072;22.192;2022-09-09T00:43:41;99588.28;;;19.90;90.12
68634;BME280;55625;47.072;22.192;2022-09-09T00:56:06;99620.50;;;19.12;97.40
68634;BME280;55625;47.072;22.192;2022-09-09T00:58:00;99617.34;;;19.10;96.73
68634;BME280;55625;47.072;22.192;2022-09-09T01:00:32;99623.31;;;19.01;97.38
68634;BME280;55625;47.072;22.192;2022-09-09T01:03:38;99625.69;;;19.02;96.91
68634;BME280;55625;47.072;22.192;2022-09-09T01:06:25;99616.44;;;18.92;97.35
68634;BME280;55625;47.072;22.192;2022-09-09T01:12:17;99600.75;;;18.88;97.96
68634;BME280;55625;47.072;22.192;2022-09-09T01:14:48;99604.63;;;18.79;98.81
68634;BME280;55625;47.072;22.192;2022-09-09T01:20:29;99585.03;;;18.83;97.94
68634;BME280;55625;47.072;22.192;2022-09-09T01:26:24;99600.72;;;18.82;98.47
68634;BME280;55625;47.072;22.192;2022-09-09T01:28:52;99597.59;;;18.86;98.96
68634;BME280;55625;47.072;22.192;2022-09-09T01:31:29;99593.94;;;18.85;98.83
68634;BME280;55625;47.072;22.192;2022-09-09T01:33:56;99595.00;;;18.88;98.67
68634;BME280;55625;47.072;22.192;2022-09-09T01:36:58;99587.41;;;18.90;98.01
68634;BME280;55625;47.072;22.192;2022-09-09T01:39:25;99596.31;;;18.92;98.35
68634;BME280;55625;47.072;22.192;2022-09-09T01:41:52;99588.22;;;18.91;98.14
68634;BME280;55625;47.072;22.192;2022-09-09T01:44:19;99575.13;;;18.90;98.29
68634;BME280;55625;47.072;22.192;2022-09-09T01:46:45;99572.75;;;18.83;99.40
68634;BME280;55625;47.072;22.192;2022-09-09T01:49:11;99567.00;;;18.83;99.54
68634;BME280;55625;47.072;22.192;2022-09-09T01:51:38;99566.88;;;18.66;100.00
68634;BME280;55625;47.072;22.192;2022-09-09T01:54:05;99557.25;;;18.69;100.00
68634;BME280;55625;47.072;22.192;2022-09-09T02:00:41;99566.41;;;18.68;100.00
68634;BME280;55625;47.072;22.192;2022-09-09T02:08:10;99606.00;;;18.58;100.00
68634;BME280;55625;47.072;22.192;2022-09-09T02:10:50;99592.66;;;18.55;100.00
68634;BME280;55625;47.072;22.192;2022-09-09T02:13:20;99600.53;;;18.60;100.00
68634;BME280;55625;47.072;22.192;2022-09-09T02:16:05;99594.75;;;18.54;100.00
68634;BME280;55625;47.072;22.192;2022-09-09T02:19:18;99585.06;;;18.52;100.00
68634;BME280;55625;47.072;22.192;2022-09-09T02:21:44;99589.25;;;18.51;100.00
68634;BME280;55625;47.072;22.192;2022-09-09T02:24:14;99595.22;;;18.47;100.00
68634;BME280;55625;47.072;22.192;2022-09-09T02:26:43;99584.53;;;18.48;100.00
68634;BME280;55625;47.072;22.192;2022-09-09T02:29:28;99584.00;;;18.49;100.00
68634;BME280;55625;47.072;22.192;2022-09-09T02:31:58;99578.50;;;18.46;100.00
68634;BME280;55625;47.072;22.192;2022-09-09T02:34:29;99569.09;;;18.45;100.00
68634;BME280;55625;47.072;22.192;2022-09-09T02:36:57;99562.31;;;18.48;100.00
68634;BME280;55625;47.072;22.192;2022-09-09T02:39:25;99543.78;;;18.49;100.00
68634;BME280;55625;47.072;22.192;2022-09-09T02:41:51;99531.25;;;18.52;100.00
68634;BME280;55625;47.072;22.192;2022-09-09T02:44:19;99522.09;;;18.48;100.00
68634;BME280;55625;47.072;22.192;2022-09-09T02:55:56;99517.16;;;18.54;100.00
68634;BME280;55625;47.072;22.192;2022-09-09T02:58:24;99510.06;;;18.50;100.00
68634;BME280;55625;47.072;22.192;2022-09-09T03:00:51;99530.25;;;18.61;100.00
68634;BME280;55625;47.072;22.192;2022-09-09T03:03:19;99540.41;;;18.56;100.00
68634;BME280;55625;47.072;22.192;2022-09-09T03:05:45;99546.94;;;18.57;100.00
68634;BME280;55625;47.072;22.192;2022-09-09T03:08:11;99561.81;;;18.50;100.00
68634;BME280;55625;47.072;22.192;2022-09-09T03:10:38;99557.09;;;18.47;100.00
68634;BME280;55625;47.072;22.192;2022-09-09T03:13:04;99572.78;;;18.51;100.00
68634;BME280;55625;47.072;22.192;2022-09-09T03:15:32;99576.69;;;18.48;100.00
68634;BME280;55625;47.072;22.192;2022-09-09T03:17:58;99559.94;;;18.41;100.00
68634;BME280;55625;47.072;22.192;2022-09-09T03:20:27;99557.56;;;18.40;100.00
68634;BME280;55625;47.072;22.192;2022-09-09T03:22:54;99551.22;;;18.30;100.00
68634;BME280;55625;47.072;22.192;2022-09-09T03:25:21;99551.03;;;18.39;100.00
68634;BME280;55625;47.072;22.192;2022-09-09T03:27:49;99544.50;;;18.39;100.00
68634;BME280;55625;47.072;22.192;2022-09-09T03:30:16;99540.31;;;18.40;100.00
68634;BME280;55625;47.072;22.192;2022-09-09T03:32:42;99539.47;;;18.34;100.00
68634;BME280;55625;47.072;22.192;2022-09-09T03:35:08;99525.91;;;18.34;100.00
68634;BME280;55625;47.072;22.192;2022-09-09T03:37:34;99525.38;;;18.36;100.00
68634;BME280;55625;47.072;22.192;2022-09-09T03:40:00;99530.13;;;18.39;100.00
68634;BME280;55625;47.072;22.192;2022-09-09T03:42:26;99518.06;;;18.35;100.00
68634;BME280;55625;47.072;22.192;2022-09-09T03:44:52;99521.97;;;18.31;100.00
68634;BME280;55625;47.072;22.192;2022-09-09T03:47:19;99523.81;;;18.35;100.00
68634;BME280;55625;47.072;22.192;2022-09-09T03:49:47;99522.50;;;18.36;100.00
68634;BME280;55625;47.072;22.192;2022-09-09T03:52:15;99517.56;;;18.36;100.00
68634;BME280;55625;47.072;22.192;2022-09-09T03:54:41;99517.34;;;18.40;100.00
68634;BME280;55625;47.072;22.192;2022-09-09T03:57:10;99510.81;;;18.39;100.00
68634;BME280;55625;47.072;22.192;2022-09-09T03:59:36;99502.72;;;18.43;100.00
68634;BME280;55625;47.072;22.192;2022-09-09T04:02:03;99507.41;;;18.41;100.00
68634;BME280;55625;47.072;22.192;2022-09-09T04:04:29;99501.41;;;18.39;100.00
68634;BME280;55625;47.072;22.192;2022-09-09T04:06:55;99509.50;;;18.40;100.00
68634;BME280;55625;47.072;22.192;2022-09-09T04:09:21;99513.72;;;18.45;100.00
68634;BME280;55625;47.072;22.192;2022-09-09T04:11:47;99497.22;;;18.40;100.00
68634;BME280;55625;47.072;22.192;2022-09-09T04:14:12;99492.53;;;18.42;100.00
68634;BME280;55625;47.072;22.192;2022-09-09T04:16:39;99483.69;;;18.51;99.83
68634;BME280;55625;47.072;22.192;2022-09-09T04:19:05;99478.19;;;18.48;100.00
68634;BME280;55625;47.072;22.192;2022-09-09T04:21:33;99478.16;;;18.42;100.00
68634;BME280;55625;47.072;22.192;2022-09-09T04:23:58;99477.91;;;18.40;100.00
68634;BME280;55625;47.072;22.192;2022-09-09T04:26:25;99472.38;;;18.37;100.00
68634;BME280;55625;47.072;22.192;2022-09-09T04:28:51;99464.56;;;18.37;100.00
68634;BME280;55625;47.072;22.192;2022-09-09T04:31:20;99483.66;;;18.46;99.77
68634;BME280;55625;47.072;22.192;2022-09-09T04:33:49;99483.06;;;18.36;100.00
68634;BME280;55625;47.072;22.192;2022-09-09T04:36:16;99489.59;;;18.37;100.00
68634;BME280;55625;47.072;22.192;2022-09-09T04:38:43;99486.72;;;18.37;99.76
68634;BME280;55625;47.072;22.192;2022-09-09T04:41:10;99491.41;;;18.34;100.00
68634;BME280;55625;47.072;22.192;2022-09-09T04:43:39;99480.69;;;18.29;100.00
68634;BME280;55625;47.072;22.192;2022-09-09T04:46:06;99483.06;;;18.36;99.14
68634;BME280;55625;47.072;22.192;2022-09-09T04:48:32;99480.16;;;18.30;98.70
68634;BME280;55625;47.072;22.192;2022-09-09T04:51:01;99476.50;;;18.30;100.00
68634;BME280;55625;47.072;22.192;2022-09-09T04:53:28;99473.63;;;18.30;99.91
68634;BME280;55625;47.072;22.192;2022-09-09T04:58:36;99468.22;;;18.38;99.59
68634;BME280;55625;47.072;22.192;2022-09-09T05:01:05;99463.81;;;18.42;99.27
68634;BME280;55625;47.072;22.192;2022-09-09T05:03:31;99473.44;;;18.39;99.29
68634;BME280;55625;47.072;22.192;2022-09-09T05:06:11;99471.63;;;18.42;99.80
68634;BME280;55625;47.072;22.192;2022-09-09T05:08:39;99463.03;;;18.47;99.65
68634;BME280;55625;47.072;22.192;2022-09-09T05:11:32;99468.81;;;18.53;98.78
68634;BME280;55625;47.072;22.192;2022-09-09T05:14:02;99468.56;;;18.56;99.41
68634;BME280;55625;47.072;22.192;2022-09-09T05:16:28;99479.81;;;18.60;98.83
68634;BME280;55625;47.072;22.192;2022-09-09T05:18:55;99473.06;;;18.63;98.42
68634;BME280;55625;47.072;22.192;2022-09-09T05:21:23;99465.75;;;18.62;98.48
68634;BME280;55625;47.072;22.192;2022-09-09T05:23:51;99471.19;;;18.60;98.60
68634;BME280;55625;47.072;22.192;2022-09-09T05:26:20;99473.06;;;18.63;99.12
68634;BME280;55625;47.072;22.192;2022-09-09T05:28:46;99468.63;;;18.62;98.68
68634;BME280;55625;47.072;22.192;2022-09-09T05:31:14;99468.88;;;18.64;98.94
68634;BME280;55625;47.072;22.192;2022-09-09T05:33:42;99473.38;;;18.71;98.18
68634;BME280;55625;47.072;22.192;2022-09-09T05:36:15;99471.03;;;18.75;97.88
68634;BME280;55625;47.072;22.192;2022-09-09T05:38:43;99483.84;;;18.74;97.98
68634;BME280;55625;47.072;22.192;2022-09-09T05:41:11;99485.94;;;18.79;97.45
68634;BME280;55625;47.072;22.192;2022-09-09T05:43:38;99488.81;;;18.79;97.77
68634;BME280;55625;47.072;22.192;2022-09-09T05:46:10;99494.06;;;18.80;97.38
68634;BME280;55625;47.072;22.192;2022-09-09T05:48:42;99485.44;;;18.86;96.77
68634;BME280;55625;47.072;22.192;2022-09-09T05:51:12;99484.91;;;18.76;98.99
68634;BME280;55625;47.072;22.192;2022-09-09T05:53:38;99477.31;;;18.79;98.37
68634;BME280;55625;47.072;22.192;2022-09-09T05:56:08;99479.94;;;18.82;97.93
68634;BME280;55625;47.072;22.192;2022-09-09T05:58:36;99476.53;;;18.78;98.04
68634;BME280;55625;47.072;22.192;2022-09-09T06:01:06;99477.06;;;18.82;98.68
68634;BME280;55625;47.072;22.192;2022-09-09T06:03:38;99472.91;;;18.83;98.80
68634;BME280;55625;47.072;22.192;2022-09-09T06:06:08;99475.00;;;18.88;98.27
68634;BME280;55625;47.072;22.192;2022-09-09T06:08:37;99472.13;;;18.94;98.82
68634;BME280;55625;47.072;22.192;2022-09-09T06:11:07;99475.31;;;19.02;98.45
68634;BME280;55625;47.072;22.192;2022-09-09T06:13:34;99474.03;;;19.08;97.98
68634;BME280;55625;47.072;22.192;2022-09-09T06:16:00;99478.47;;;19.15;97.12
68634;BME280;55625;47.072;22.192;2022-09-09T06:18:27;99482.16;;;19.21;97.48
68634;BME280;55625;47.072;22.192;2022-09-09T06:21:03;99488.22;;;19.29;98.09
68634;BME280;55625;47.072;22.192;2022-09-09T06:23:31;99484.28;;;19.37;96.90
68634;BME280;55625;47.072;22.192;2022-09-09T06:26:15;99476.44;;;19.49;96.50
68634;BME280;55625;47.072;22.192;2022-09-09T06:28:47;99484.06;;;19.58;95.72
68634;BME280;55625;47.072;22.192;2022-09-09T06:31:15;99486.72;;;19.67;95.19
68634;BME280;55625;47.072;22.192;2022-09-09T06:33:53;99477.81;;;19.81;95.46
68634;BME280;55625;47.072;22.192;2022-09-09T06:36:32;99479.38;;;19.99;94.43
68634;BME280;55625;47.072;22.192;2022-09-09T06:38:59;99479.63;;;20.12;93.50
68634;BME280;55625;47.072;22.192;2022-09-09T06:41:29;99482.75;;;20.26;94.26
68634;BME280;55625;47.072;22.192;2022-09-09T06:43:56;99486.13;;;20.35;92.60
68634;BME280;55625;47.072;22.192;2022-09-09T06:46:25;99490.59;;;20.42;91.35
68634;BME280;55625;47.072;22.192;2022-09-09T06:48:54;99489.28;;;20.43;91.29
68634;BME280;55625;47.072;22.192;2022-09-09T06:51:35;99494.25;;;20.37;90.84
68634;BME280;55625;47.072;22.192;2022-09-09T06:54:03;99490.31;;;20.34;90.70
68634;BME280;55625;47.072;22.192;2022-09-09T06:56:33;99497.66;;;20.35;90.68
68634;BME280;55625;47.072;22.192;2022-09-09T06:59:04;99494.78;;;20.41;91.47
68634;BME280;55625;47.072;22.192;2022-09-09T07:01:37;99492.94;;;20.49;89.32
68634;BME280;55625;47.072;22.192;2022-09-09T07:04:04;99504.75;;;20.45;88.75
68634;BME280;55625;47.072;22.192;2022-09-09T07:06:35;99502.63;;;20.46;88.89
68634;BME280;55625;47.072;22.192;2022-09-09T07:09:08;99506.31;;;20.46;88.31
68634;BME280;55625;47.072;22.192;2022-09-09T07:11:41;99514.69;;;20.50;88.54
68634;BME280;55625;47.072;22.192;2022-09-09T07:14:08;99508.94;;;20.56;88.78
68634;BME280;55625;47.072;22.192;2022-09-09T07:16:35;99520.19;;;20.59;87.81
68634;BME280;55625;47.072;22.192;2022-09-09T07:19:04;99517.81;;;20.63;89.73
68634;BME280;55625;47.072;22.192;2022-09-09T07:21:31;99513.09;;;20.66;87.36
68634;BME280;55625;47.072;22.192;2022-09-09T07:23:57;99523.28;;;20.72;87.66
68634;BME280;55625;47.072;22.192;2022-09-09T07:26:26;99512.25;;;20.82;87.96
68634;BME280;55625;47.072;22.192;2022-09-09T07:28:53;99515.38;;;20.90;86.66
68634;BME280;55625;47.072;22.192;2022-09-09T07:31:31;99519.50;;;21.00;85.67
68634;BME280;55625;47.072;22.192;2022-09-09T07:36:28;99514.44;;;21.23;85.82
68634;BME280;55625;47.072;22.192;2022-09-09T07:39:10;99521.19;;;21.36;84.90
68634;BME280;55625;47.072;22.192;2022-09-09T07:41:42;99519.28;;;21.50;84.54
68634;BME280;55625;47.072;22.192;2022-09-09T07:44:22;99521.88;;;21.54;84.29
68634;BME280;55625;47.072;22.192;2022-09-09T07:46:48;99520.47;;;21.66;84.99
68634;BME280;55625;47.072;22.192;2022-09-09T07:49:14;99526.75;;;21.70;84.24
68634;BME280;55625;47.072;22.192;2022-09-09T07:51:44;99518.84;;;21.76;84.40
68634;BME280;55625;47.072;22.192;2022-09-09T07:54:13;99526.97;;;21.78;83.85
68634;BME280;55625;47.072;22.192;2022-09-09T07:56:40;99528.50;;;21.84;84.46
68634;BME280;55625;47.072;22.192;2022-09-09T07:59:07;99527.56;;;22.00;82.25
68634;BME280;55625;47.072;22.192;2022-09-09T08:01:37;99528.13;;;22.05;82.64
68634;BME280;55625;47.072;22.192;2022-09-09T08:04:17;99536.44;;;22.14;83.38
68634;BME280;55625;47.072;22.192;2022-09-09T08:06:55;99536.69;;;22.16;85.59
68634;BME280;55625;47.072;22.192;2022-09-09T08:09:22;99541.81;;;22.28;83.77
68634;BME280;55625;47.072;22.192;2022-09-09T08:11:51;99545.78;;;22.80;81.35
68634;BME280;55625;47.072;22.192;2022-09-09T08:14:17;99539.41;;;23.30;80.42
68634;BME280;55625;47.072;22.192;2022-09-09T08:16:46;99541.81;;;23.82;76.28
68634;BME280;55625;47.072;22.192;2022-09-09T08:19:13;99532.19;;;24.25;74.23
68634;BME280;55625;47.072;22.192;2022-09-09T08:21:41;99526.69;;;24.67;77.06
68634;BME280;55625;47.072;22.192;2022-09-09T08:24:09;99536.97;;;24.81;74.99
68634;BME280;55625;47.072;22.192;2022-09-09T08:26:43;99537.66;;;25.00;73.19
68634;BME280;55625;47.072;22.192;2022-09-09T08:29:11;99533.41;;;25.15;73.28
68634;BME280;55625;47.072;22.192;2022-09-09T08:31:53;99544.34;;;25.08;71.66
68634;BME280;55625;47.072;22.192;2022-09-09T08:34:21;99540.78;;;25.16;72.51
68634;BME280;55625;47.072;22.192;2022-09-09T08:36:49;99544.00;;;25.25;73.02
68634;BME280;55625;47.072;22.192;2022-09-09T08:39:18;99541.97;;;25.33;73.98
68634;BME280;55625;47.072;22.192;2022-09-09T08:58:32;99557.22;;;25.00;71.14
68634;BME280;55625;47.072;22.192;2022-09-09T09:06:47;99557.50;;;24.96;69.51
68634;BME280;55625;47.072;22.192;2022-09-09T09:11:53;99558.94;;;24.63;66.80
68634;BME280;55625;47.072;22.192;2022-09-09T09:14:29;99560.44;;;24.38;68.45
68634;BME280;55625;47.072;22.192;2022-09-09T09:19:30;99559.50;;;23.98;69.13
68634;BME280;55625;47.072;22.192;2022-09-09T09:22:11;99567.03;;;23.88;69.46
68634;BME280;55625;47.072;22.192;2022-09-09T09:24:53;99566.19;;;23.74;70.07
68634;BME280;55625;47.072;22.192;2022-09-09T09:27:32;99576.75;;;23.52;71.56
68634;BME280;55625;47.072;22.192;2022-09-09T09:30:20;99574.22;;;23.43;72.33
68634;BME280;55625;47.072;22.192;2022-09-09T09:32:59;99569.47;;;23.46;71.18
68634;BME280;55625;47.072;22.192;2022-09-09T09:35:26;99571.41;;;23.38;71.12
68634;BME280;55625;47.072;22.192;2022-09-09T09:37:52;99570.47;;;23.30;71.96
68634;BME280;55625;47.072;22.192;2022-09-09T09:40:21;99581.19;;;23.35;73.54
68634;BME280;55625;47.072;22.192;2022-09-09T09:42:57;99575.25;;;23.46;71.27
68634;BME280;55625;47.072;22.192;2022-09-09T09:45:32;99574.94;;;23.49;70.89
68634;BME280;55625;47.072;22.192;2022-09-09T09:48:08;99571.06;;;23.66;71.35
68634;BME280;55625;47.072;22.192;2022-09-09T09:50:35;99566.91;;;23.80;69.62
68634;BME280;55625;47.072;22.192;2022-09-09T09:53:26;99567.28;;;23.90;67.82
68634;BME280;55625;47.072;22.192;2022-09-09T09:56:09;99572.84;;;23.88;68.17
68634;BME280;55625;47.072;22.192;2022-09-09T10:01:30;99586.16;;;23.77;68.58
68634;BME280;55625;47.072;22.192;2022-09-09T10:04:21;99575.13;;;23.76;68.70
68634;BME280;55625;47.072;22.192;2022-09-09T10:06:49;99579.75;;;23.66;69.13
68634;BME280;55625;47.072;22.192;2022-09-09T10:09:29;99576.09;;;23.65;70.17
68634;BME280;55625;47.072;22.192;2022-09-09T10:21:23;99575.22;;;23.70;70.84
68634;BME280;55625;47.072;22.192;2022-09-09T10:33:08;99573.50;;;23.62;72.19
68634;BME280;55625;47.072;22.192;2022-09-09T10:38:42;99583.03;;;23.57;72.00
68634;BME280;55625;47.072;22.192;2022-09-09T10:41:29;99578.88;;;23.71;71.60
68634;BME280;55625;47.072;22.192;2022-09-09T10:44:15;99581.63;;;23.82;71.89
68634;BME280;55625;47.072;22.192;2022-09-09T10:46:48;99570.00;;;24.01;71.67
68634;BME280;55625;47.072;22.192;2022-09-09T10:55:41;99568.66;;;24.53;68.82
68634;BME280;55625;47.072;22.192;2022-09-09T10:58:18;99576.34;;;24.50;67.32
68634;BME280;55625;47.072;22.192;2022-09-09T11:00:54;99573.88;;;24.22;67.59
68634;BME280;55625;47.072;22.192;2022-09-09T11:03:26;99577.84;;;24.06;68.53
68634;BME280;55625;47.072;22.192;2022-09-09T11:06:05;99575.50;;;23.85;68.90
68634;BME280;55625;47.072;22.192;2022-09-09T11:08:36;99577.56;;;23.91;69.02
68634;BME280;55625;47.072;22.192;2022-09-09T11:11:21;99575.72;;;23.88;70.07
68634;BME280;55625;47.072;22.192;2022-09-09T11:19:30;99573.56;;;24.26;71.05
68634;BME280;55625;47.072;22.192;2022-09-09T11:25:04;99573.50;;;24.31;69.42
68634;BME280;55625;47.072;22.192;2022-09-09T11:42:41;99571.72;;;23.53;74.32
68634;BME280;55625;47.072;22.192;2022-09-09T11:45:26;99577.91;;;23.44;74.48
68634;BME280;55625;47.072;22.192;2022-09-09T11:47:59;99577.75;;;23.36;74.71
68634;BME280;55625;47.072;22.192;2022-09-09T11:53:03;99578.94;;;23.28;75.20
68634;BME280;55625;47.072;22.192;2022-09-09T11:55:34;99576.03;;;23.28;75.91
68634;BME280;55625;47.072;22.192;2022-09-09T11:58:17;99579.94;;;23.30;75.65
68634;BME280;55625;47.072;22.192;2022-09-09T12:00:46;99569.22;;;23.44;75.40
68634;BME280;55625;47.072;22.192;2022-09-09T12:03:47;99565.03;;;23.64;75.10
68634;BME280;55625;47.072;22.192;2022-09-09T12:06:29;99574.09;;;23.73;72.41
68634;BME280;55625;47.072;22.192;2022-09-09T12:09:49;99562.47;;;23.60;73.05
68634;BME280;55625;47.072;22.192;2022-09-09T12:12:30;99565.47;;;23.49;73.46
68634;BME280;55625;47.072;22.192;2022-09-09T12:17:31;99554.00;;;23.62;73.18
68634;BME280;55625;47.072;22.192;2022-09-09T12:20:35;99548.44;;;23.64;73.23
68634;BME280;55625;47.072;22.192;2022-09-09T12:37:03;99535.16;;;24.52;70.60
68634;BME280;55625;47.072;22.192;2022-09-09T12:39:40;99526.00;;;24.74;69.59
68634;BME280;55625;47.072;22.192;2022-09-09T12:42:21;99536.75;;;24.92;68.51
68634;BME280;55625;47.072;22.192;2022-09-09T12:44:58;99523.34;;;24.63;70.62
68634;BME280;55625;47.072;22.192;2022-09-09T12:50:36;99526.38;;;24.25;71.27
68634;BME280;55625;47.072;22.192;2022-09-09T12:53:22;99525.59;;;24.25;71.43
68634;BME280;55625;47.072;22.192;2022-09-09T12:55:58;99523.25;;;24.23;71.12
68634;BME280;55625;47.072;22.192;2022-09-09T12:58:25;99520.06;;;24.40;71.22
68634;BME280;55625;47.072;22.192;2022-09-09T13:00:55;99520.88;;;24.67;69.94
68634;BME280;55625;47.072;22.192;2022-09-09T13:03:22;99513.84;;;24.89;68.87
68634;BME280;55625;47.072;22.192;2022-09-09T13:05:50;99510.28;;;25.09;68.73
68634;BME280;55625;47.072;22.192;2022-09-09T13:08:17;99507.72;;;25.19;67.60
68634;BME280;55625;47.072;22.192;2022-09-09T13:11:03;99503.00;;;25.29;67.96
68634;BME280;55625;47.072;22.192;2022-09-09T13:13:39;99496.72;;;25.38;67.20
68634;BME280;55625;47.072;22.192;2022-09-09T13:16:30;99495.81;;;25.43;67.47
68634;BME280;55625;47.072;22.192;2022-09-09T13:19:09;99501.13;;;25.18;67.47
68634;BME280;55625;47.072;22.192;2022-09-09T13:21:37;99506.81;;;24.97;68.74
68634;BME280;55625;47.072;22.192;2022-09-09T13:24:06;99503.78;;;24.76;68.69
68634;BME280;55625;47.072;22.192;2022-09-09T13:26:55;99503.25;;;24.52;69.83
68634;BME280;55625;47.072;22.192;2022-09-09T13:29:22;99500.31;;;24.38;70.21
68634;BME280;55625;47.072;22.192;2022-09-09T13:31:54;99507.34;;;24.30;70.87
68634;BME280;55625;47.072;22.192;2022-09-09T13:34:34;99504.22;;;24.09;71.61
68634;BME280;55625;47.072;22.192;2022-09-09T13:37:06;99488.00;;;23.87;72.00
68634;BME280;55625;47.072;22.192;2022-09-09T13:39:37;99496.59;;;23.61;73.51
68634;BME280;55625;47.072;22.192;2022-09-09T13:42:04;99508.22;;;23.55;74.28
68634;BME280;55625;47.072;22.192;2022-09-09T13:44:39;99506.41;;;23.52;74.74
68634;BME280;55625;47.072;22.192;2022-09-09T13:47:19;99529.78;;;23.41;76.95
68634;BME280;55625;47.072;22.192;2022-09-09T13:49:46;99540.56;;;23.21;78.88
68634;BME280;55625;47.072;22.192;2022-09-09T13:52:14;99519.09;;;22.14;85.19
68634;BME280;55625;47.072;22.192;2022-09-09T13:54:42;99508.13;;;22.07;84.84
68634;BME280;55625;47.072;22.192;2022-09-09T13:57:34;99495.94;;;21.84;87.15
68634;BME280;55625;47.072;22.192;2022-09-09T14:00:01;99482.19;;;21.60;88.26
68634;BME280;55625;47.072;22.192;2022-09-09T14:02:27;99490.31;;;21.61;89.35
68634;BME280;55625;47.072;22.192;2022-09-09T14:04:53;99492.09;;;21.70;91.18
68634;BME280;55625;47.072;22.192;2022-09-09T14:07:20;99502.44;;;21.90;92.57
68634;BME280;55625;47.072;22.192;2022-09-09T14:09:46;99497.88;;;22.00;94.41
68634;BME280;55625;47.072;22.192;2022-09-09T14:12:16;99497.53;;;22.15;94.40
68634;BME280;55625;47.072;22.192;2022-09-09T14:14:42;99494.22;;;22.29;92.89
68634;BME280;55625;47.072;22.192;2022-09-09T14:17:09;99494.78;;;22.28;91.28
68634;BME280;55625;47.072;22.192;2022-09-09T14:19:35;99504.44;;;22.36;90.99
68634;BME280;55625;47.072;22.192;2022-09-09T14:22:02;99502.81;;;22.41;90.97
68634;BME280;55625;47.072;22.192;2022-09-09T14:24:28;99517.69;;;22.50;89.89
68634;BME280;55625;47.072;22.192;2022-09-09T14:26:54;99511.91;;;22.50;88.86
68634;BME280;55625;47.072;22.192;2022-09-09T14:29:20;99514.00;;;22.50;88.93
68634;BME280;55625;47.072;22.192;2022-09-09T14:31:46;99508.16;;;22.55;88.59
68634;BME280;55625;47.072;22.192;2022-09-09T14:34:12;99511.19;;;22.69;88.88
68634;BME280;55625;47.072;22.192;2022-09-09T14:36:40;99497.75;;;22.71;88.35
68634;BME280;55625;47.072;22.192;2022-09-09T14:39:07;99500.56;;;22.77;87.14
68634;BME280;55625;47.072;22.192;2022-09-09T14:41:33;99502.75;;;22.71;87.48
68634;BME280;55625;47.072;22.192;2022-09-09T14:43:59;99501.19;;;22.70;87.84
68634;BME280;55625;47.072;22.192;2022-09-09T14:46:26;99501.53;;;22.85;86.34
68634;BME280;55625;47.072;22.192;2022-09-09T14:48:52;99504.44;;;22.85;87.17
68634;BME280;55625;47.072;22.192;2022-09-09T14:51:21;99503.88;;;22.86;87.07
68634;BME280;55625;47.072;22.192;2022-09-09T14:53:50;99505.53;;;22.82;85.50
68634;BME280;55625;47.072;22.192;2022-09-09T14:56:19;99517.56;;;22.86;86.62
68634;BME280;55625;47.072;22.192;2022-09-09T14:58:47;99518.06;;;22.90;87.15
68634;BME280;55625;47.072;22.192;2022-09-09T15:01:19;99524.31;;;22.94;86.47
68634;BME280;55625;47.072;22.192;2022-09-09T15:03:54;99519.31;;;22.95;87.52
68634;BME280;55625;47.072;22.192;2022-09-09T15:06:22;99515.16;;;22.90;86.94
68634;BME280;55625;47.072;22.192;2022-09-09T15:08:51;99517.50;;;22.91;84.92
68634;BME280;55625;47.072;22.192;2022-09-09T15:11:18;99512.50;;;22.92;84.45
68634;BME280;55625;47.072;22.192;2022-09-09T15:13:44;99518.84;;;22.90;84.49
68634;BME280;55625;47.072;22.192;2022-09-09T15:16:16;99512.25;;;22.90;82.94
68634;BME280;55625;47.072;22.192;2022-09-09T15:18:43;99516.25;;;22.87;84.83
68634;BME280;55625;47.072;22.192;2022-09-09T15:21:17;99512.63;;;22.81;86.26
68634;BME280;55625;47.072;22.192;2022-09-09T15:23:45;99515.88;;;22.72;86.74
68634;BME280;55625;47.072;22.192;2022-09-09T15:26:11;99508.28;;;22.69;87.75
68634;BME280;55625;47.072;22.192;2022-09-09T15:28:40;99497.31;;;22.61;86.75
68634;BME280;55625;47.072;22.192;2022-09-09T15:31:30;99508.94;;;22.56;87.28
68634;BME280;55625;47.072;22.192;2022-09-09T15:34:02;99511.91;;;22.50;87.09
68634;BME280;55625;47.072;22.192;2022-09-09T15:39:06;99503.59;;;22.41;87.47
68634;BME280;55625;47.072;22.192;2022-09-09T15:41:32;99497.81;;;22.41;88.02
68634;BME280;55625;47.072;22.192;2022-09-09T15:43:59;99501.00;;;22.38;88.85
68634;BME280;55625;47.072;22.192;2022-09-09T15:46:36;99499.16;;;22.35;89.10